Tiempo atmosférico en la estación meteorológica de Manilva, Málaga (140 m.)



Fecha
DESCASC
Temp. máxima en grados centígrados (hora)
DESCASC
Temp. mínima en grados centígrados (hora)
DESCASC
Temp. media en grados centígrados
DESCASC
Racha de viento máxima en m/sg (hora)
DESCASC
Velocidad máxima media en intervalos de 10 minutos(hora)
DESCASC
Precipitaciones diarias en mm
DESCASC
Precipitaciones de 00:00 a 06:00 en mm
DESCASC
Precipitaciones de 06:00 a 12:00 en mm
DESCASC
Precipitaciones de 12:00 a 18:00 en mm
DESCASC
Precipitaciones de 18:00 a 24:00 en mm
DESCASC
13-10-2019 23.1 (16:50) 19 (06:20) 21.1 8.33 (16:40) 4.72 (17:00) 0 0 0 0 0
12-10-2019 24.8 (17:00) 19.7 (23:59) 22.3 8.33 (15:30) 5.28 (15:40) 0 0 0 0 0
11-10-2019 23.4 (13:30) 20.4 (07:10) 21.9 10.83 (13:00) 6.67 (13:00) 0 0 0 0 0
10-10-2019 23.5 (14:50) 18.2 (00:00) 20.9 12.22 (12:10) 8.06 (12:10) 0 0 0 0 0
09-10-2019 24.3 (17:00) 19.3 (00:00) 21.8 6.67 (11:20) 4.72 (11:20) 0 0 0 0 0
08-10-2019 24.2 (14:50) 19.5 (00:00) 21.9 11.39 (11:30) 7.5 (11:30) 0 0 0 0 0
07-10-2019 32.8 (17:20) 19.3 (00:00) 26 3.89 (15:50) 2.5 (12:50) 0 0 0 0 0
06-10-2019 30.4 (17:10) 18.3 (00:00) 24.3 10 (05:20) 6.39 (02:20) 0 0 0 0 0
05-10-2019 29.2 (14:50) 18.8 (00:00) 24 10.56 (11:20) 7.5 (10:30) 0 0 0 0 0
04-10-2019 28.3 (17:40) 19 (00:00) 23.6 10.83 (01:20) 7.78 (01:30) 0 0 0 0 0
03-10-2019 30.1 (16:00) 17.8 (00:00) 23.9 13.33 (11:20) 9.72 (11:20) 0 0 0 0 0
02-10-2019 27.6 (15:20) 18.4 (00:00) 23 15 (15:20) 10.56 (14:20) 0 0 0 0 0
01-10-2019 32.8 (17:00) 19.5 (00:00) 26.1 13.06 (15:00) 8.89 (15:00) 0 0 0 0 0
30-09-2019 30.2 (17:20) 18.5 (00:00) 24.4 6.11 (06:10) 4.17 (06:00) 0 0 0 0 0
29-09-2019 26.7 (17:30) 18.9 (00:00) 22.8 5.83 (16:00) 3.33 (13:30) 0 0 0 0 0
28-09-2019 26 (18:10) 18.7 (00:00) 22.4 4.17 (15:50) 2.78 (15:50) 0 0 0 0 0
27-09-2019 26.5 (16:30) 18.3 (00:00) 22.4 5 (07:40) 3.33 (07:20) 0 0 0 0 0
26-09-2019 24.9 (16:50) 20 (00:00) 22.4 6.94 (12:10) 4.44 (12:00) 0 0 0 0 0
25-09-2019 33 (16:10) 21.2 (00:00) 27.1 11.39 (16:30) 7.78 (05:20) 0 0 0 0 0
24-09-2019 30.3 (18:30) 17.3 (00:00) 23.8 8.61 (23:59) 6.11 (22:50) 0 0 0 0 0
23-09-2019 28.1 (15:10) 17.6 (00:00) 22.9 9.72 (01:00) 6.67 (01:00) 0 0 0 0 0
22-09-2019 27.3 (17:30) 19.1 (00:00) 23.2 11.11 (18:20) 6.94 (17:00) 0 0 0 0 0
21-09-2019 26.7 (15:50) 20.1 (00:00) 23.4 7.5 (23:30) 5.28 (23:30) 0.4 0.4 0 0 0
20-09-2019 23.7 (11:20) 20.8 (00:00) 22.3 8.06 (15:00) 5.83 (15:00) 0 0 0 0 0
19-09-2019 26.8 (15:20) 18.7 (00:00) 22.8 8.89 (02:30) 6.11 (02:50) 0 0 0 0 0
18-09-2019 28.3 (18:40) 19.4 (00:00) 23.8 8.33 (22:10) 6.39 (22:30) 0 0 0 0 0
17-09-2019 26.3 (16:00) 19.8 (00:00) 23 7.5 (13:10) 4.44 (13:10) 1 0 0 1 0
16-09-2019 24.9 (17:50) 19.2 (00:00) 22.1 6.67 (13:00) 4.72 (13:00) 0 0 0 0 0

Gráficas

Temp. máximas Temp. mínimas Temp. medias Precipitaciones Rachas de viento máximas Velocidades máximas media en intervalos de 10 minutos

Datos horarios

Fecha y hora oficial Temperatura (ºC) Velocidad del viento (km/h) Dirección del viento Racha (km/h) Dirección de racha Precipitación (mm) Presión (hPa) Tendencia (hPa) Humedad (%)
2019-10-15 23:00:00 16.1 12 Noroeste 15 Noroeste 0 -- -- 46
2019-10-15 22:00:00 17.1 6 Noroeste 13 Noroeste 0 -- -- 43
2019-10-15 21:00:00 18.2 9 Norte 19 Noroeste 0 -- -- 43
2019-10-15 20:00:00 19.8 4 Norte 8 Noroeste 0 -- -- 40
2019-10-15 19:00:00 22.6 2 Norte 14 Este 0 -- -- 42
2019-10-15 18:00:00 23.6 7 Este 17 Norte 0 -- -- 41
2019-10-15 17:00:00 22.8 4 Este 14 Este 0 -- -- 37
2019-10-15 16:00:00 22.1 9 Sudeste 19 Este 0 -- -- 36
2019-10-15 15:00:00 21.9 6 Sudeste 24 Sur 0 -- -- 36
2019-10-15 14:00:00 22.6 10 Sur 24 Sur 0 -- -- 35
2019-10-15 13:00:00 20.8 9 Noroeste 19 Sudoeste 0 -- -- 39
2019-10-15 12:00:00 18.8 6 Noroeste 25 Noroeste 0 -- -- 50
2019-10-15 11:00:00 16.6 16 Noroeste 27 Noroeste 0 -- -- 59
2019-10-15 10:00:00 15 17 Noroeste 28 Noroeste 0 -- -- 69
2019-10-15 09:00:00 13.2 16 Noroeste 28 Noroeste 0 -- -- 78
2019-10-15 08:00:00 13.1 19 Noroeste 24 Noroeste 0 -- -- 82
2019-10-15 07:00:00 13.8 14 Noroeste 23 Noroeste 0 -- -- 78
2019-10-15 06:00:00 14.1 16 Noroeste 22 Noroeste 0 -- -- 78
2019-10-15 05:00:00 14.1 14 Noroeste 18 Norte 0 -- -- 84
2019-10-15 04:00:00 14.8 13 Noroeste 20 Noroeste 0 -- -- 85
2019-10-15 03:00:00 15.2 12 Noroeste 22 Noroeste 0 -- -- 85
2019-10-15 02:00:00 15.9 12 Noroeste 24 Noroeste 0 -- -- 84
2019-10-15 01:00:00 15.9 13 Noroeste 23 Oeste 0 -- -- 89
2019-10-15 00:00:00 16.4 13 Oeste 19 Oeste 0 -- -- 88
2019-10-14 23:00:00 17.2 8 Noroeste 19 Norte 0 -- -- 84
2019-10-14 22:00:00 18.1 6 Noroeste 22 Oeste 0 -- -- 72
2019-10-14 21:00:00 19 14 Noroeste 26 Noroeste 0 -- -- 67
2019-10-14 20:00:00 19.3 10 Noroeste 39 Oeste 0 -- -- 62
2019-10-14 19:00:00 21.7 19 Noroeste 48 Noroeste 0 -- -- 51
2019-10-14 18:00:00 22.6 26 Noroeste 47 Noroeste 0 -- -- 50
2019-10-14 17:00:00 23.3 26 Oeste 48 Oeste 0 -- -- 56
2019-10-14 16:00:00 23.7 21 Oeste 45 Oeste 0 -- -- 58
2019-10-14 15:00:00 23.6 22 Oeste 39 Oeste 0 -- -- 60
2019-10-14 14:00:00 22.3 23 Oeste 39 Noroeste 0 -- -- 63
2019-10-14 13:00:00 22.1 18 Noroeste 35 Oeste 0 -- -- 66
2019-10-14 12:00:00 20.9 19 Noroeste 39 Noroeste 0 -- -- 70
2019-10-14 11:00:00 20.2 19 Noroeste 30 Noroeste 0 -- -- 79
2019-10-14 10:00:00 19.5 13 Noroeste 22 Oeste 0 -- -- 86
2019-10-14 09:00:00 19.6 10 Oeste 24 Oeste 0 -- -- 81
2019-10-14 08:00:00 19 12 Noroeste 21 Noroeste 0 -- -- 86
2019-10-14 07:00:00 19.3 13 Noroeste 20 Noroeste 0 -- -- 90
2019-10-14 06:00:00 19.6 8 Noroeste 14 Oeste 0 -- -- 90
2019-10-14 05:00:00 19.5 5 Oeste 19 Oeste 0.2 -- -- 92
2019-10-14 04:00:00 19.6 4 Nordeste 8 Nordeste 0 -- -- 91
2019-10-14 03:00:00 19.9 3 Sur 18 Sudeste 0 -- -- 89
2019-10-14 02:00:00 20.1 7 Sudeste 18 Este 0 -- -- 89
2019-10-14 01:00:00 19.8 7 Sudeste 14 Este 0 -- -- 92
2019-10-14 00:00:00 20.1 6 Sudeste 12 Sudeste 0 -- -- 90
2019-10-13 23:00:00 20 4 Sur 9 Sudeste 0 -- -- 90
2019-10-13 22:00:00 19.9 2 Sur 13 Sur 0 -- -- 89
2019-10-13 21:00:00 20.1 8 Sudeste 17 Sur 0 -- -- 88
2019-10-13 20:00:00 20.3 10 Sur 17 Sur 0 -- -- 88
2019-10-13 19:00:00 20.9 10 Sudeste 20 Sudeste 0 -- -- 86
2019-10-13 18:00:00 21.6 11 Sudeste 23 Sudeste 0 -- -- 84
2019-10-13 17:00:00 23 17 Sudeste 30 Sudeste 0 -- -- 79
2019-10-13 16:00:00 22.7 15 Sudeste 26 Sudeste 0 -- -- 78
2019-10-13 15:00:00 22.4 16 Sudeste 26 Sudeste 0 -- -- 81
2019-10-13 14:00:00 22.8 14 Sudeste 24 Sudeste 0 -- -- 80
2019-10-13 13:00:00 22.3 13 Sudeste 23 Sudeste 0 -- -- 81
2019-10-13 12:00:00 21.3 10 Sudeste 18 Sudeste 0 -- -- 87
2019-10-13 11:00:00 20.3 7 Sudeste 14 Sudeste 0 -- -- 92
2019-10-13 10:00:00 19.6 5 Sudeste 13 Sur 0 -- -- 93
2019-10-13 09:00:00 19.1 0 Calma 5 Sudeste 0 -- -- 94
2019-10-13 08:00:00 19 0 Calma 4 Sudoeste 0 -- -- 94
2019-10-13 07:00:00 19 0 Calma 3 Oeste 0 -- -- 93
2019-10-13 06:00:00 19.2 0 Calma 7 Sudoeste 0 -- -- 93
2019-10-13 05:00:00 19.2 0 Calma 4 Sudeste 0 -- -- 92
2019-10-13 04:00:00 19.7 3 Sudeste 9 Este 0 -- -- 91
2019-10-13 03:00:00 20 4 Sudeste 8 Este 0 -- -- 91
2019-10-13 02:00:00 20.1 3 Sur 6 Sudeste 0 -- -- 90
2019-10-13 01:00:00 20.2 0 Calma 3 Este 0 -- -- 89
2019-10-13 00:00:00 19.7 2 Noroeste 5 Noroeste 0 -- -- 89
2019-10-12 23:00:00 20.4 3 Este 4 Este 0 -- -- 89
2019-10-12 22:00:00 20.3 0 Calma 4 Noroeste 0 -- -- 87
2019-10-12 21:00:00 20.9 0 Calma 10 Este 0 -- -- 85
2019-10-12 20:00:00 21.8 3 Sudeste 13 Sudeste 0 -- -- 81
2019-10-12 19:00:00 23.2 8 Sudeste 15 Sur 0 -- -- 73
2019-10-12 18:00:00 24.6 8 Sur 21 Sudeste 0 -- -- 69
2019-10-12 17:00:00 24.8 10 Sudeste 27 Sudeste 0 -- -- 67
2019-10-12 16:00:00 24.5 15 Sur 30 Sudeste 0 -- -- 70
2019-10-12 15:00:00 24.3 16 Sudeste 27 Sudeste 0 -- -- 71
2019-10-12 14:00:00 24.3 13 Sudeste 26 Este 0 -- -- 69
2019-10-12 13:00:00 23.2 13 Sudeste 23 Este 0 -- -- 75
2019-10-12 12:00:00 23.2 12 Sudeste 27 Sudeste 0 -- -- 76
2019-10-12 11:00:00 22.9 13 Sudeste 22 Sudeste 0 -- -- 76
2019-10-12 10:00:00 21.6 12 Sudeste 20 Sudeste 0 -- -- 81
2019-10-12 09:00:00 21.2 8 Sudeste 17 Sudeste 0 -- -- 81
2019-10-12 08:00:00 21 5 Este 15 Este 0 -- -- 80
2019-10-12 07:00:00 21.2 4 Sudeste 15 Este 0 -- -- 79
2019-10-12 06:00:00 21.3 7 Sudeste 19 Este 0 -- -- 79
2019-10-12 05:00:00 21.2 9 Sudeste 22 Este 0 -- -- 78
2019-10-12 04:00:00 20.8 10 Sudeste 21 Sudeste 0 -- -- 83
2019-10-12 03:00:00 20.7 7 Sudeste 21 Sudeste 0 -- -- 85
2019-10-12 02:00:00 20.6 6 Este 14 Este 0 -- -- 86
2019-10-12 01:00:00 20.6 11 Sudeste 19 Sudeste 0 -- -- 85
2019-10-12 00:00:00 20.6 10 Sudeste 15 Sudeste 0 -- -- 86
2019-10-11 23:00:00 20.6 5 Este 14 Este 0 -- -- 87
2019-10-11 22:00:00 20.8 9 Este 13 Sudeste 0 -- -- 86
2019-10-11 21:00:00 20.7 3 Sur 14 Este 0 -- -- 86
2019-10-11 20:00:00 21 9 Sudeste 19 Sudeste 0 -- -- 85
2019-10-11 19:00:00 21.5 14 Sudeste 24 Sudeste 0 -- -- 82
2019-10-11 18:00:00 22 12 Sudeste 26 Este 0 -- -- 80
2019-10-11 17:00:00 22.7 13 Sudeste 26 Este 0 -- -- 77
2019-10-11 16:00:00 22.3 15 Sudeste 29 Sudeste 0 -- -- 78
2019-10-11 15:00:00 23.1 17 Sudeste 31 Este 0 -- -- 75
2019-10-11 14:00:00 22.7 13 Sudeste 33 Este 0 -- -- 75
2019-10-11 13:00:00 22.9 24 Sudeste 39 Sudeste 0 -- -- 75
2019-10-11 12:00:00 22.7 23 Sudeste 37 Este 0 -- -- 73
2019-10-11 11:00:00 22 18 Sudeste 29 Sudeste 0 -- -- 73
2019-10-11 10:00:00 21.6 13 Este 27 Sudeste 0 -- -- 74
2019-10-11 09:00:00 20.7 11 Sudeste 28 Sudeste 0 -- -- 78
2019-10-11 08:00:00 20.5 13 Sudeste 25 Sudeste 0 -- -- 80
2019-10-11 07:00:00 20.5 12 Sudeste 30 Este 0 -- -- 82
2019-10-11 06:00:00 20.7 15 Sudeste 29 Este 0 -- -- 80
2019-10-11 05:00:00 20.6 17 Sudeste 30 Este 0 -- -- 81
2019-10-11 04:00:00 20.8 17 Sudeste 35 Sudeste 0 -- -- 82
2019-10-11 03:00:00 20.9 20 Sudeste 33 Sudeste 0 -- -- 79
2019-10-11 02:00:00 20.8 18 Sudeste 30 Sudeste 0 -- -- 80
2019-10-11 01:00:00 21.1 16 Sudeste 33 Este 0 -- -- 77
2019-10-11 00:00:00 21.2 20 Sudeste 32 Sudeste 0 -- -- 77
2019-10-10 23:00:00 21 15 Sudeste 28 Este 0 -- -- 80
2019-10-10 22:00:00 21 17 Sudeste 32 Sudeste 0 -- -- 82
2019-10-10 21:00:00 20.9 21 Sudeste 33 Este 0 -- -- 85
2019-10-10 20:00:00 21.1 18 Sudeste 29 Este 0 -- -- 84
2019-10-10 19:00:00 22.1 19 Sudeste 32 Sudeste 0 -- -- 80
2019-10-10 18:00:00 22.7 21 Sudeste 39 Este 0 -- -- 78
2019-10-10 17:00:00 23.3 21 Sudeste 37 Sudeste 0 -- -- 75
2019-10-10 16:00:00 23.4 23 Sudeste 41 Sudeste 0 -- -- 75
2019-10-10 15:00:00 23.4 24 Sudeste 40 Sudeste 0 -- -- 75
2019-10-10 14:00:00 23.4 22 Sudeste 43 Sudeste 0 -- -- 76
2019-10-10 13:00:00 22.8 29 Sudeste 44 Este 0 -- -- 78
2019-10-10 12:00:00 22.4 26 Sudeste 42 Este 0 -- -- 78
2019-10-10 11:00:00 21.7 23 Sudeste 37 Este 0 -- -- 79
2019-10-10 10:00:00 21.3 19 Sudeste 31 Sudeste 0 -- -- 69
2019-10-10 09:00:00 19.9 10 Sudeste 18 Este 0 -- -- 63
2019-10-10 08:00:00 19.1 8 Sudeste 18 Sudeste 0 -- -- 68
2019-10-10 07:00:00 18.5 5 Sudeste 11 Sudeste 0 -- -- 70
2019-10-10 06:00:00 18.5 6 Sudeste 15 Este 0 -- -- 87
2019-10-10 05:00:00 18.2 2 Este 15 Sudeste 0 -- -- 87
2019-10-10 04:00:00 18.5 4 Sudeste 7 Sudeste 0 -- -- 92
2019-10-10 03:00:00 18.7 3 Nordeste 8 Nordeste 0 -- -- 93
2019-10-10 02:00:00 18.8 4 Norte 7 Nordeste 0 -- -- 92
2019-10-10 01:00:00 19.1 5 Norte 7 Norte 0 -- -- 91
2019-10-10 00:00:00 19.3 4 Norte 5 Norte 0 -- -- 90
2019-10-09 23:00:00 19.8 3 Este 4 Este 0 -- -- 89
2019-10-09 22:00:00 20.1 0 Calma 4 Sudeste 0 -- -- 87
2019-10-09 21:00:00 20.7 0 Calma 4 Este 0 -- -- 85
2019-10-09 20:00:00 21.6 4 Sur 10 Sur 0 -- -- 80
2019-10-09 19:00:00 23.9 5 Sur 11 Sudeste 0 -- -- 72
2019-10-09 18:00:00 23.9 5 Sudeste 18 Sur 0 -- -- 71
2019-10-09 17:00:00 24.3 10 Sudeste 22 Sudeste 0 -- -- 69
2019-10-09 16:00:00 24 11 Sudeste 21 Sudeste 0 -- -- 71
2019-10-09 15:00:00 23.8 14 Sur 22 Sudeste 0 -- -- 72
2019-10-09 14:00:00 23.2 12 Sudeste 22 Sudeste 0 -- -- 65
2019-10-09 13:00:00 23 13 Sudeste 22 Este 0 -- -- 72
2019-10-09 12:00:00 22.9 10 Sudeste 24 Sudeste 0 -- -- 69
2019-10-09 11:00:00 22.8 12 Sudeste 22 Sudeste 0 -- -- 53
2019-10-09 10:00:00 22.7 9 Sudeste 17 Sudeste 0 -- -- 50
2019-10-09 09:00:00 20.2 5 Este 11 Sudeste 0 -- -- 54
2019-10-09 08:00:00 20.1 4 Este 11 Este 0 -- -- 57
2019-10-09 07:00:00 20 0 Calma 14 Este 0 -- -- 56
2019-10-09 06:00:00 20.4 3 Este 12 Sudeste 0 -- -- 55
2019-10-09 05:00:00 20.3 0 Calma 14 Este 0 -- -- 59
2019-10-09 04:00:00 20.4 3 Este 15 Este 0 -- -- 56
2019-10-09 03:00:00 20.5 4 Este 19 Sudeste 0 -- -- 63
2019-10-09 02:00:00 20.8 13 Sudeste 20 Sudeste 0 -- -- 68
2019-10-09 01:00:00 21 11 Sudeste 20 Sudeste 0 -- -- 69
2019-10-09 00:00:00 21.5 11 Sudeste 17 Sudeste 0 -- -- 71
2019-10-08 23:00:00 21.4 9 Sudeste 15 Sudeste 0 -- -- 69
2019-10-08 22:00:00 21.5 6 Sudeste 17 Sudeste 0 -- -- 70
2019-10-08 21:00:00 21.6 7 Sudeste 19 Sudeste 0 -- -- 68
2019-10-08 20:00:00 21.7 10 Sudeste 24 Sudeste 0 -- -- 71
2019-10-08 19:00:00 22.4 12 Sudeste 30 Este 0 -- -- 78
2019-10-08 18:00:00 23.1 18 Sudeste 32 Sudeste 0 -- -- 74
2019-10-08 17:00:00 23.7 18 Sudeste 34 Sudeste 0 -- -- 73
2019-10-08 16:00:00 24 20 Sudeste 35 Este 0 -- -- 69
2019-10-08 15:00:00 24.1 20 Sudeste 36 Sudeste 0 -- -- 69
2019-10-08 14:00:00 23.7 23 Sudeste 40 Este 0 -- -- 70
2019-10-08 13:00:00 23.4 26 Sudeste 41 Sudeste 0 -- -- 72
2019-10-08 12:00:00 23 24 Sudeste 41 Este 0 -- -- 77
2019-10-08 11:00:00 22.6 22 Sudeste 41 Sudeste 0 -- -- 76
2019-10-08 10:00:00 22 15 Sudeste 28 Este 0 -- -- 74
2019-10-08 09:00:00 20.4 13 Sudeste 30 Este 0 -- -- 82
2019-10-08 08:00:00 20.5 17 Sudeste 30 Sudeste 0 -- -- 75
2019-10-08 07:00:00 20.4 12 Sudeste 23 Este 0 -- -- 75
2019-10-08 06:00:00 20.4 10 Sudeste 17 Sudeste 0 -- -- 79
2019-10-08 05:00:00 20.7 6 Este 23 Este 0 -- -- 72
2019-10-08 04:00:00 20 8 Sudeste 18 Sudeste 0 -- -- 73
2019-10-08 03:00:00 19.8 3 Nordeste 20 Este 0 -- -- 80
2019-10-08 02:00:00 20.6 3 Nordeste 8 Este 0 -- -- 71
2019-10-08 01:00:00 20.8 0 Calma 5 Sudeste 0 -- -- 66
2019-10-08 00:00:00 21.3 0 Calma 4 Noroeste 0 -- -- 69
2019-10-07 23:00:00 22.3 2 Noroeste 4 Sudeste 0 -- -- 61
2019-10-07 22:00:00 24.9 3 Este 7 Este 0 -- -- 46
2019-10-07 21:00:00 26 5 Noroeste 9 Noroeste 0 -- -- 48
2019-10-07 20:00:00 27.5 4 Noroeste 9 Noroeste 0 -- -- 39
2019-10-07 19:00:00 30.2 3 Nordeste 10 Este 0 -- -- 39
2019-10-07 18:00:00 30.1 6 Este 13 Este 0 -- -- 43
2019-10-07 17:00:00 32.5 7 Sur 13 Sur 0 -- -- 33
2019-10-07 16:00:00 32 8 Sudeste 14 Sur 0 -- -- 30
2019-10-07 15:00:00 30.6 5 Sudeste 14 Sur 0 -- -- 33
2019-10-07 14:00:00 29.2 5 Sur 13 Sudeste 0 -- -- 35
2019-10-07 13:00:00 29.2 5 Sur 13 Sudeste 0 -- -- 38
2019-10-07 12:00:00 27.8 5 Nordeste 10 Sur 0 -- -- 42
2019-10-07 11:00:00 27.7 5 Sudeste 7 Sur 0 -- -- 38
2019-10-07 10:00:00 25 0 Calma 9 Nordeste 0 -- -- 40
2019-10-07 09:00:00 21.7 8 Norte 9 Este 0 -- -- 43
2019-10-07 08:00:00 21.5 4 Norte 8 Noroeste 0 -- -- 43
2019-10-07 07:00:00 20.6 0 Calma 8 Nordeste 0 -- -- 45
2019-10-07 06:00:00 20.9 3 Noroeste 8 Noroeste 0 -- -- 44
2019-10-07 05:00:00 21 0 Calma 7 Noroeste 0 -- -- 50
2019-10-07 04:00:00 20.3 4 Nordeste 9 Nordeste 0 -- -- 58
2019-10-07 03:00:00 19.9 4 Sudoeste 6 Noroeste 0 -- -- 74
2019-10-07 02:00:00 20.6 5 Oeste 11 Oeste 0 -- -- 59
2019-10-07 01:00:00 21.2 4 Noroeste 9 Noroeste 0 -- -- 53
2019-10-07 00:00:00 23.4 6 Nordeste 19 Noroeste 0 -- -- 54
2019-10-06 23:00:00 24.1 8 Norte 13 Noroeste 0 -- -- 49
2019-10-06 22:00:00 24.6 6 Nordeste 13 Nordeste 0 -- -- 53
2019-10-06 21:00:00 24.4 2 Norte 14 Noroeste 0 -- -- 61
2019-10-06 20:00:00 26.8 0 Calma 5 Nordeste 0 -- -- 54
2019-10-06 19:00:00 29.5 2 Nordeste 8 Norte 0 -- -- 48
2019-10-06 18:00:00 29.9 4 Este 10 Nordeste 0 -- -- 46
2019-10-06 17:00:00 30.2 5 Sur 13 Sudeste 0 -- -- 46
2019-10-06 16:00:00 28.8 6 Este 12 Sudeste 0 -- -- 48
2019-10-06 15:00:00 27.6 6 Sur 14 Sudeste 0 -- -- 49
2019-10-06 14:00:00 26.6 7 Sur 13 Sudeste 0 -- -- 54
2019-10-06 13:00:00 25 6 Sur 14 Sur 0 -- -- 60
2019-10-06 12:00:00 25.4 2 Este 10 Sur 0 -- -- 57
2019-10-06 11:00:00 24.2 4 Sudeste 13 Norte 0 -- -- 57
2019-10-06 10:00:00 22 9 Norte 15 Norte 0 -- -- 48
2019-10-06 09:00:00 18.9 0 Calma 8 Noroeste 0 -- -- 57
2019-10-06 08:00:00 18.7 4 Norte 14 Norte 0 -- -- 59
2019-10-06 07:00:00 20.3 8 Norte 20 Noroeste 0 -- -- 53
2019-10-06 06:00:00 20.8 15 Noroeste 36 Noroeste 0 -- -- 54
2019-10-06 05:00:00 21 16 Noroeste 25 Norte 0 -- -- 54
2019-10-06 04:00:00 21.9 14 Noroeste 29 Noroeste 0 -- -- 51
2019-10-06 03:00:00 21.5 15 Norte 32 Noroeste 0 -- -- 53
2019-10-06 02:00:00 21.6 19 Noroeste 29 Noroeste 0 -- -- 58
2019-10-06 01:00:00 22.3 19 Noroeste 27 Norte 0 -- -- 58
2019-10-06 00:00:00 22.4 17 Noroeste 29 Noroeste 0 -- -- 60
2019-10-05 23:00:00 23 19 Noroeste 31 Noroeste 0 -- -- 60
2019-10-05 22:00:00 23.7 19 Noroeste 28 Noroeste 0 -- -- 58
2019-10-05 21:00:00 24.6 12 Noroeste 24 Oeste 0 -- -- 56
2019-10-05 20:00:00 26.8 13 Oeste 27 Noroeste 0 -- -- 51
2019-10-05 19:00:00 29.1 19 Noroeste 34 Oeste 0 -- -- 42
2019-10-05 18:00:00 28.7 20 Noroeste 32 Noroeste 0 -- -- 46
2019-10-05 17:00:00 27.3 16 Oeste 32 Oeste 0 -- -- 52
2019-10-05 16:00:00 27.5 18 Oeste 29 Oeste 0 -- -- 53
2019-10-05 15:00:00 28.7 18 Oeste 29 Oeste 0 -- -- 49
2019-10-05 14:00:00 27.9 15 Oeste 33 Sudoeste 0 -- -- 50
2019-10-05 13:00:00 25.9 17 Oeste 30 Oeste 0 -- -- 58
2019-10-05 12:00:00 24.9 20 Noroeste 38 Noroeste 0 -- -- 57
2019-10-05 11:00:00 22.4 27 Noroeste 37 Noroeste 0 -- -- 63
2019-10-05 10:00:00 20.7 21 Noroeste 34 Noroeste 0 -- -- 63
2019-10-05 09:00:00 19.6 23 Noroeste 36 Noroeste 0 -- -- 68
2019-10-05 08:00:00 19.5 18 Noroeste 27 Noroeste 0 -- -- 63
2019-10-05 07:00:00 19.5 11 Noroeste 28 Noroeste 0 -- -- 65
2019-10-05 06:00:00 19.4 19 Noroeste 26 Noroeste 0 -- -- 69
2019-10-05 05:00:00 20 14 Noroeste 22 Noroeste 0 -- -- 66
2019-10-05 04:00:00 20.7 8 Norte 22 Norte 0 -- -- 63
2019-10-05 03:00:00 20.9 8 Norte 24 Noroeste 0 -- -- 64
2019-10-05 02:00:00 21 11 Norte 23 Noroeste 0 -- -- 63
2019-10-05 01:00:00 21.7 6 Norte 18 Norte 0 -- -- 62
2019-10-05 00:00:00 22.6 6 Norte 23 Noroeste 0 -- -- 56
2019-10-04 23:00:00 23.2 17 Noroeste 24 Noroeste 0 -- -- 54
2019-10-04 22:00:00 23.6 6 Noroeste 14 Noroeste 0 -- -- 51
2019-10-04 21:00:00 23.4 4 Noroeste 8 Noroeste 0 -- -- 44
2019-10-04 20:00:00 25.6 3 Noroeste 6 Sudeste 0 -- -- 40
2019-10-04 19:00:00 27.6 4 Este 9 Sudeste 0 -- -- 34
2019-10-04 18:00:00 28 5 Este 12 Este 0 -- -- 32
2019-10-04 17:00:00 27.4 6 Este 13 Este 0 -- -- 37
2019-10-04 16:00:00 27.9 7 Sudeste 14 Sur 0 -- -- 37
2019-10-04 15:00:00 27.6 8 Sur 16 Sudeste 0 -- -- 38
2019-10-04 14:00:00 26.7 8 Este 15 Sudeste 0 -- -- 40
2019-10-04 13:00:00 26.9 9 Sudeste 18 Sudeste 0 -- -- 37
2019-10-04 12:00:00 26.7 10 Sudeste 16 Sudeste 0 -- -- 38
2019-10-04 11:00:00 25.8 5 Sur 9 Sudeste 0 -- -- 42
2019-10-04 10:00:00 25.4 5 Nordeste 8 Nordeste 0 -- -- 43
2019-10-04 09:00:00 20.2 3 Norte 9 Norte 0 -- -- 55
2019-10-04 08:00:00 19.7 6 Norte 10 Noroeste 0 -- -- 51
2019-10-04 07:00:00 19.6 4 Noroeste 25 Noroeste 0 -- -- 47
2019-10-04 06:00:00 20.6 13 Noroeste 26 Noroeste 0 -- -- 45
2019-10-04 05:00:00 20.6 20 Noroeste 28 Noroeste 0 -- -- 45
2019-10-04 04:00:00 20.8 17 Noroeste 30 Noroeste 0 -- -- 46
2019-10-04 03:00:00 21.1 20 Noroeste 33 Noroeste 0 -- -- 45
2019-10-04 02:00:00 19.6 26 Noroeste 39 Noroeste 0 -- -- 52
2019-10-04 01:00:00 19.6 24 Noroeste 38 Noroeste 0 -- -- 52
2019-10-04 00:00:00 20.8 23 Noroeste 35 Noroeste 0 -- -- 50
2019-10-03 23:00:00 20.8 26 Noroeste 41 Noroeste 0 -- -- 50
2019-10-03 22:00:00 21.7 27 Noroeste 41 Noroeste 0 -- -- 46
2019-10-03 21:00:00 22.7 30 Noroeste 45 Noroeste 0 -- -- 43
2019-10-03 20:00:00 24.1 29 Noroeste 43 Noroeste 0 -- -- 42
2019-10-03 19:00:00 26.4 32 Noroeste 46 Noroeste 0 -- -- 39
2019-10-03 18:00:00 27.6 34 Noroeste 48 Noroeste 0 -- -- 41
2019-10-03 17:00:00 29.1 30 Noroeste 45 Noroeste 0 -- -- 39
2019-10-03 16:00:00 30.1 24 Noroeste 42 Oeste 0 -- -- 38
2019-10-03 15:00:00 28.5 26 Oeste 40 Oeste 0 -- -- 43
2019-10-03 14:00:00 27.7 22 Noroeste 36 Oeste 0 -- -- 42
2019-10-03 13:00:00 25.5 23 Noroeste 38 Noroeste 0 -- -- 52
2019-10-03 12:00:00 23.6 27 Noroeste 48 Noroeste 0 -- -- 56
2019-10-03 11:00:00 21.2 30 Noroeste 41 Oeste 0 -- -- 68
2019-10-03 10:00:00 18.9 26 Noroeste 45 Noroeste 0 -- -- 74
2019-10-03 09:00:00 18.1 28 Noroeste 45 Noroeste 0 -- -- 79
2019-10-03 08:00:00 17.8 28 Noroeste 42 Noroeste 0 -- -- 78
2019-10-03 07:00:00 17.9 29 Noroeste 41 Noroeste 0 -- -- 78
2019-10-03 06:00:00 18 26 Noroeste 40 Noroeste 0 -- -- 76
2019-10-03 05:00:00 18.4 25 Noroeste 45 Noroeste 0 -- -- 68
2019-10-03 04:00:00 18.8 28 Noroeste 44 Noroeste 0 -- -- 63
2019-10-03 03:00:00 18.7 27 Noroeste 42 Noroeste 0 -- -- 63
2019-10-03 02:00:00 18.5 27 Noroeste 41 Noroeste 0 -- -- 65
2019-10-03 01:00:00 18.5 29 Noroeste 42 Noroeste 0 -- -- 68
2019-10-03 00:00:00 18.8 29 Noroeste 47 Noroeste 0 -- -- 69
2019-10-02 23:00:00 19.7 34 Noroeste 43 Noroeste 0 -- -- 62
2019-10-02 22:00:00 20.3 26 Noroeste 42 Noroeste 0 -- -- 59
2019-10-02 21:00:00 21.2 30 Noroeste 41 Oeste 0 -- -- 55
2019-10-02 20:00:00 22.3 25 Noroeste 43 Oeste 0 -- -- 48
2019-10-02 19:00:00 25 29 Oeste 43 Oeste 0 -- -- 39
2019-10-02 18:00:00 26.6 28 Oeste 46 Oeste 0 -- -- 36
2019-10-02 17:00:00 27.1 33 Oeste 48 Oeste 0 -- -- 30
2019-10-02 16:00:00 27.3 30 Oeste 54 Noroeste 0 -- -- 29
2019-10-02 15:00:00 27.3 30 Oeste 54 Oeste 0 -- -- 34
2019-10-02 14:00:00 26.1 36 Oeste 54 Oeste 0 -- -- 44
2019-10-02 13:00:00 25.3 30 Oeste 46 Oeste 0 -- -- 45
2019-10-02 12:00:00 24.9 28 Noroeste 43 Oeste 0 -- -- 46
2019-10-02 11:00:00 23.2 30 Noroeste 45 Oeste 0 -- -- 51
2019-10-02 10:00:00 20.3 28 Noroeste 40 Noroeste 0 -- -- 64
2019-10-02 09:00:00 18.8 22 Noroeste 31 Noroeste 0 -- -- 68
2019-10-02 08:00:00 18.7 18 Noroeste 27 Noroeste 0 -- -- 67
2019-10-02 07:00:00 19.4 7 Noroeste 24 Noroeste 0 -- -- 64
2019-10-02 06:00:00 19.9 14 Noroeste 27 Noroeste 0 -- -- 65
2019-10-02 05:00:00 21.9 22 Noroeste 41 Noroeste 0 -- -- 57
2019-10-02 04:00:00 21.7 20 Noroeste 40 Noroeste 0 -- -- 61
2019-10-02 03:00:00 21.7 27 Noroeste 42 Noroeste 0 -- -- 64
2019-10-02 02:00:00 21.4 17 Noroeste 29 Noroeste 0 -- -- 65
2019-10-02 01:00:00 22 14 Noroeste 37 Noroeste 0 -- -- 64
2019-10-02 00:00:00 22.8 23 Noroeste 42 Norte 0 -- -- 61
2019-10-01 23:00:00 23.3 28 Noroeste 42 Noroeste 0 -- -- 60
2019-10-01 22:00:00 23.1 15 Noroeste 29 Oeste 0 -- -- 61
2019-10-01 21:00:00 24.8 18 Noroeste 34 Oeste 0 -- -- 54
2019-10-01 20:00:00 26.2 24 Oeste 45 Noroeste 0 -- -- 48
2019-10-01 19:00:00 29 23 Noroeste 40 Noroeste 0 -- -- 43
2019-10-01 18:00:00 31.8 23 Noroeste 40 Oeste 0 -- -- 37
2019-10-01 17:00:00 32.8 23 Noroeste 45 Oeste 0 -- -- 23
2019-10-01 16:00:00 32.4 24 Noroeste 46 Oeste 0 -- -- 23
2019-10-01 15:00:00 31.4 32 Noroeste 47 Oeste 0 -- -- 24
2019-10-01 14:00:00 30.8 30 Noroeste 43 Noroeste 0 -- -- 24
2019-10-01 13:00:00 30.6 27 Noroeste 40 Noroeste 0 -- -- 21
2019-10-01 12:00:00 28.2 18 Noroeste 33 Noroeste 0 -- -- 26
2019-10-01 11:00:00 25.3 17 Noroeste 27 Noroeste 0 -- -- 33
2019-10-01 10:00:00 22.5 19 Noroeste 26 Noroeste 0 -- -- 43
2019-10-01 09:00:00 22.2 17 Noroeste 24 Noroeste 0 -- -- 42
2019-10-01 08:00:00 19.8 9 Norte 19 Norte 0 -- -- 53
2019-10-01 07:00:00 20.8 5 Nordeste 7 Nordeste 0 -- -- 45
2019-10-01 06:00:00 22.2 4 Nordeste 6 Nordeste 0 -- -- 43
2019-10-01 05:00:00 22.7 6 Nordeste 15 Noroeste 0 -- -- 44
2019-10-01 04:00:00 22.9 7 Norte 12 Norte 0 -- -- 43
2019-10-01 03:00:00 21.6 0 Calma 6 Noroeste 0 -- -- 48
2019-10-01 02:00:00 21.3 4 Noroeste 7 Noroeste 0 -- -- 49
2019-10-01 01:00:00 21.2 5 Norte 9 Noroeste 0 -- -- 47
2019-10-01 00:00:00 21.4 4 Noroeste 10 Norte 0 -- -- 43
2019-09-30 23:00:00 21.9 2 Oeste 7 Noroeste 0 -- -- 47
2019-09-30 22:00:00 22.1 4 Noroeste 6 Noroeste 0 -- -- 45
2019-09-30 21:00:00 23.3 0 Calma 6 Norte 0 -- -- 52
2019-09-30 20:00:00 25.5 4 Nordeste 7 Sudeste 0 -- -- 46
2019-09-30 19:00:00 27.8 2 Este 6 Sudoeste 0 -- -- 44
2019-09-30 18:00:00 29 3 Nordeste 10 Sudeste 0 -- -- 40
2019-09-30 17:00:00 29.5 5 Sur 14 Sur 0 -- -- 35
2019-09-30 16:00:00 28.5 6 Sudeste 13 Este 0 -- -- 42
2019-09-30 15:00:00 27.7 6 Sudeste 15 Sudeste 0 -- -- 46
2019-09-30 14:00:00 27.4 5 Sudeste 14 Sur 0 -- -- 54
2019-09-30 13:00:00 26.7 7 Sudeste 14 Sur 0 -- -- 57
2019-09-30 12:00:00 25.7 5 Sur 13 Sudeste 0 -- -- 61
2019-09-30 11:00:00 23.5 2 Oeste 7 Sudoeste 0 -- -- 64
2019-09-30 10:00:00 22.4 2 Sur 6 Sur 0 -- -- 67
2019-09-30 09:00:00 19.2 2 Nordeste 9 Noroeste 0 -- -- 65
2019-09-30 08:00:00 19.2 0 Calma 4 Norte 0 -- -- 71
2019-09-30 07:00:00 20.2 5 Nordeste 22 Norte 0 -- -- 62
2019-09-30 06:00:00 20.6 15 Norte 21 Noroeste 0 -- -- 61
2019-09-30 05:00:00 21.1 10 Noroeste 15 Noroeste 0 -- -- 66
2019-09-30 04:00:00 20.4 4 Noroeste 11 Noroeste 0 -- -- 75
2019-09-30 03:00:00 20.6 5 Norte 17 Noroeste 0 -- -- 77
2019-09-30 02:00:00 20.5 9 Norte 17 Noroeste 0 -- -- 80
2019-09-30 01:00:00 19.8 4 Norte 15 Noroeste 0 -- -- 85
2019-09-30 00:00:00 20 4 Noroeste 9 Noroeste 0 -- -- 86
2019-09-29 23:00:00 19.5 2 Noroeste 4 Noroeste 0 -- -- 85
2019-09-29 22:00:00 19.9 3 Noroeste 5 Noroeste 0 -- -- 82
2019-09-29 21:00:00 21.3 2 Norte 5 Sur 0 -- -- 81
2019-09-29 20:00:00 22.8 5 Sur 9 Sur 0 -- -- 78
2019-09-29 19:00:00 25.7 5 Sur 12 Sur 0 -- -- 67
2019-09-29 18:00:00 26.4 7 Sur 14 Sur 0 -- -- 64
2019-09-29 17:00:00 26 7 Sur 17 Sur 0 -- -- 65
2019-09-29 16:00:00 25.8 11 Sudeste 21 Sur 0 -- -- 67
2019-09-29 15:00:00 25.2 9 Sudeste 20 Sur 0 -- -- 68
2019-09-29 14:00:00 24.2 11 Sudeste 20 Este 0 -- -- 71
2019-09-29 13:00:00 23.3 10 Sudeste 20 Sudeste 0 -- -- 73
2019-09-29 12:00:00 22.3 10 Sudeste 18 Sudeste 0 -- -- 81
2019-09-29 11:00:00 21 6 Sudeste 13 Sur 0 -- -- 87
2019-09-29 10:00:00 20.2 3 Nordeste 6 Nordeste 0 -- -- 91
2019-09-29 09:00:00 19 3 Nordeste 5 Nordeste 0 -- -- 93
2019-09-29 08:00:00 19.3 0 Calma 5 Noroeste 0 -- -- 94
2019-09-29 07:00:00 19 2 Sudoeste 5 Oeste 0 -- -- 94
2019-09-29 06:00:00 19.3 2 Sudoeste 8 Este 0 -- -- 93
2019-09-29 05:00:00 19.7 3 Sudeste 9 Este 0 -- -- 93
2019-09-29 04:00:00 19.8 3 Este 6 Este 0 -- -- 93
2019-09-29 03:00:00 19.9 0 Calma 12 Este 0 -- -- 93
2019-09-29 02:00:00 20 2 Este 14 Este 0 -- -- 92
2019-09-29 01:00:00 20.1 4 Sudeste 11 Sur 0 -- -- 91
2019-09-29 00:00:00 20 0 Calma 8 Nordeste 0 -- -- 88
2019-09-28 23:00:00 20 2 Nordeste 4 Nordeste 0 -- -- 86
2019-09-28 22:00:00 20 3 Norte 5 Nordeste 0 -- -- 88
2019-09-28 21:00:00 20.9 3 Este 7 Este 0 -- -- 88
2019-09-28 20:00:00 22.3 3 Sur 11 Sur 0 -- -- 78
2019-09-28 19:00:00 24.8 4 Sudeste 9 Este 0 -- -- 68
2019-09-28 18:00:00 25.8 6 Sudeste 12 Sudeste 0 -- -- 65
2019-09-28 17:00:00 25.3 7 Este 14 Sudeste 0 -- -- 67
2019-09-28 16:00:00 24.8 9 Sudeste 15 Sudeste 0 -- -- 68
2019-09-28 15:00:00 23.6 8 Este 14 Este 0 -- -- 72
2019-09-28 14:00:00 23.1 9 Este 13 Sudeste 0 -- -- 73
2019-09-28 13:00:00 22.6 5 Este 14 Este 0 -- -- 79
2019-09-28 12:00:00 20.5 6 Este 13 Sudeste 0 -- -- 87
2019-09-28 11:00:00 19.5 5 Nordeste 8 Norte 0 -- -- 93
2019-09-28 10:00:00 18.7 2 Sudeste 4 Este 0 -- -- 94
2019-09-28 09:00:00 18.7 0 Calma 6 Noroeste 0 -- -- 94
2019-09-28 08:00:00 18.9 3 Norte 10 Norte 0 -- -- 94
2019-09-28 07:00:00 19.1 4 Norte 9 Nordeste 0 -- -- 92
2019-09-28 06:00:00 19.4 5 Sudeste 9 Este 0 -- -- 90
2019-09-28 05:00:00 18.8 3 Norte 8 Norte 0 -- -- 88
2019-09-28 04:00:00 19 3 Norte 8 Norte 0 -- -- 89
2019-09-28 03:00:00 19.3 6 Norte 7 Nordeste 0 -- -- 86
2019-09-28 02:00:00 19.9 4 Este 7 Nordeste 0 -- -- 86
2019-09-28 01:00:00 20 7 Nordeste 12 Norte 0 -- -- 81
2019-09-28 00:00:00 20.2 7 Nordeste 10 Norte 0 -- -- 81
2019-09-27 23:00:00 20.4 2 Norte 5 Sur 0 -- -- 82
2019-09-27 22:00:00 20.5 0 Calma 3 Sudoeste 0 -- -- 79
2019-09-27 21:00:00 21.7 2 Noroeste 4 Norte 0 -- -- 80
2019-09-27 20:00:00 23 3 Sur 9 Sur 0 -- -- 76
2019-09-27 19:00:00 25.5 5 Sur 13 Sur 0 -- -- 69
2019-09-27 18:00:00 25.8 8 Sur 14 Sur 0 -- -- 67
2019-09-27 17:00:00 26.5 6 Sudeste 15 Sur 0 -- -- 65
2019-09-27 16:00:00 26.4 8 Sur 17 Sur 0 -- -- 65
2019-09-27 15:00:00 25.4 10 Sur 17 Sur 0 -- -- 68
2019-09-27 14:00:00 24.6 8 Sur 14 Sur 0 -- -- 71
2019-09-27 13:00:00 23.6 7 Sudeste 15 Sur 0 -- -- 76
2019-09-27 12:00:00 23.3 9 Sur 17 Sudeste 0 -- -- 77
2019-09-27 11:00:00 22 5 Sur 12 Noroeste 0 -- -- 83
2019-09-27 10:00:00 19.6 7 Noroeste 14 Noroeste 0 -- -- 89
2019-09-27 09:00:00 18.8 8 Noroeste 13 Noroeste 0 -- -- 93
2019-09-27 08:00:00 18.4 9 Noroeste 18 Noroeste 0 -- -- 94
2019-09-27 07:00:00 19.3 9 Noroeste 15 Noroeste 0 -- -- 90
2019-09-27 06:00:00 20.1 4 Sudeste 8 Sudeste 0 -- -- 92
2019-09-27 05:00:00 20.1 0 Calma 7 Sudeste 0 -- -- 92
2019-09-27 04:00:00 20.3 4 Este 9 Sudeste 0 -- -- 92
2019-09-27 03:00:00 20.5 4 Este 10 Este 0 -- -- 91
2019-09-27 02:00:00 20.9 4 Este 8 Este 0 -- -- 91
2019-09-27 01:00:00 20.8 2 Nordeste 6 Nordeste 0 -- -- 91
2019-09-27 00:00:00 21.1 4 Este 5 Este 0 -- -- 91
2019-09-26 23:00:00 21 4 Nordeste 5 Nordeste 0 -- -- 89
2019-09-26 22:00:00 21.4 3 Norte 7 Este 0 -- -- 89
2019-09-26 21:00:00 21.9 3 Este 6 Este 0 -- -- 88
2019-09-26 20:00:00 22.7 3 Este 14 Este 0 -- -- 85
2019-09-26 19:00:00 24.1 8 Sudeste 15 Este 0 -- -- 78
2019-09-26 18:00:00 24.2 10 Sudeste 20 Este 0 -- -- 79
2019-09-26 17:00:00 24.8 12 Sudeste 20 Sudeste 0 -- -- 75
2019-09-26 16:00:00 24.6 13 Sudeste 22 Sudeste 0 -- -- 76
2019-09-26 15:00:00 24.2 13 Sudeste 24 Sudeste 0 -- -- 76
2019-09-26 14:00:00 24.1 12 Este 23 Este 0 -- -- 77
2019-09-26 13:00:00 23.4 13 Sudeste 25 Sudeste 0 -- -- 78
2019-09-26 12:00:00 22.8 16 Sudeste 24 Este 0 -- -- 79
2019-09-26 11:00:00 24.6 8 Este 18 Sudeste 0 -- -- 64
2019-09-26 10:00:00 22.5 2 Este 5 Oeste 0 -- -- 75
2019-09-26 09:00:00 20.5 4 Sudoeste 10 Sudoeste 0 -- -- 90
2019-09-26 08:00:00 20.3 0 Calma 5 Nordeste 0 -- -- 86
2019-09-26 07:00:00 20.8 3 Nordeste 12 Este 0 -- -- 76
2019-09-26 06:00:00 20.7 5 Nordeste 10 Norte 0 -- -- 56
2019-09-26 05:00:00 21.5 6 Nordeste 10 Nordeste 0 -- -- 43
2019-09-26 04:00:00 21.7 5 Norte 17 Noroeste 0 -- -- 44
2019-09-26 03:00:00 22.2 13 Noroeste 17 Noroeste 0 -- -- 43
2019-09-26 02:00:00 22.9 14 Noroeste 18 Noroeste 0 -- -- 42
2019-09-26 01:00:00 23 11 Noroeste 19 Noroeste 0 -- -- 42
2019-09-26 00:00:00 23.8 12 Noroeste 27 Noroeste 0 -- -- 44
2019-09-25 23:00:00 23.8 21 Noroeste 30 Noroeste 0 -- -- 48
2019-09-25 22:00:00 24.8 22 Noroeste 32 Noroeste 0 -- -- 45
2019-09-25 21:00:00 26.3 19 Noroeste 32 Noroeste 0 -- -- 42
2019-09-25 20:00:00 28.8 19 Noroeste 33 Oeste 0 -- -- 34
2019-09-25 19:00:00 31.7 19 Noroeste 38 Noroeste 0 -- -- 28
2019-09-25 18:00:00 32.8 19 Noroeste 39 Oeste 0 -- -- 28
2019-09-25 17:00:00 32.7 24 Noroeste 41 Noroeste 0 -- -- 29
2019-09-25 16:00:00 32.7 24 Noroeste 40 Oeste 0 -- -- 27
2019-09-25 15:00:00 32.3 21 Noroeste 40 Oeste 0 -- -- 29
2019-09-25 14:00:00 30.9 21 Noroeste 38 Noroeste 0 -- -- 29
2019-09-25 13:00:00 29.5 25 Noroeste 38 Noroeste 0 -- -- 35
2019-09-25 12:00:00 27.7 18 Oeste 32 Oeste 0 -- -- 48
2019-09-25 11:00:00 25.4 21 Noroeste 29 Noroeste 0 -- -- 56
2019-09-25 10:00:00 22.9 22 Noroeste 29 Noroeste 0 -- -- 65
2019-09-25 09:00:00 21.5 21 Noroeste 29 Noroeste 0 -- -- 67
2019-09-25 08:00:00 21.7 17 Noroeste 26 Noroeste 0 -- -- 64
2019-09-25 07:00:00 22.4 19 Noroeste 35 Noroeste 0 -- -- 61
2019-09-25 06:00:00 23.1 23 Noroeste 35 Noroeste 0 -- -- 58
2019-09-25 05:00:00 23.3 24 Noroeste 32 Noroeste 0 -- -- 54
2019-09-25 04:00:00 23.4 21 Noroeste 36 Noroeste 0 -- -- 52
2019-09-25 03:00:00 23.5 22 Noroeste 33 Noroeste 0 -- -- 49
2019-09-25 02:00:00 24.7 19 Noroeste 30 Noroeste 0 -- -- 43
2019-09-25 01:00:00 24.5 20 Noroeste 30 Noroeste 0 -- -- 44
2019-09-25 00:00:00 25 21 Noroeste 31 Noroeste 0 -- -- 44
2019-09-24 23:00:00 25.8 22 Noroeste 29 Noroeste 0 -- -- 43
2019-09-24 22:00:00 25.5 18 Noroeste 29 Noroeste 0 -- -- 44
2019-09-24 21:00:00 25.9 12 Noroeste 22 Noroeste 0 -- -- 46
2019-09-24 20:00:00 26.4 2 Sur 7 Nordeste 0 -- -- 54
2019-09-24 19:00:00 29.4 6 Nordeste 9 Nordeste 0 -- -- 46
2019-09-24 18:00:00 29.7 5 Sur 11 Sur 0 -- -- 43
2019-09-24 17:00:00 29.6 6 Sur 15 Sur 0 -- -- 37
2019-09-24 16:00:00 28.1 9 Sudeste 19 Sur 0 -- -- 36
2019-09-24 15:00:00 27.9 9 Sur 17 Sur 0 -- -- 40
2019-09-24 14:00:00 27.1 7 Sur 16 Sudeste 0 -- -- 41
2019-09-24 13:00:00 26 13 Sudeste 19 Sur 0 -- -- 41
2019-09-24 12:00:00 26.5 4 Sudoeste 13 Norte 0 -- -- 46
2019-09-24 11:00:00 24.5 0 Calma 8 Norte 0 -- -- 47
2019-09-24 10:00:00 22 5 Noroeste 8 Noroeste 0 -- -- 51
2019-09-24 09:00:00 18.1 5 Noroeste 10 Noroeste 0 -- -- 73
2019-09-24 08:00:00 17.4 4 Noroeste 5 Noroeste 0 -- -- 77
2019-09-24 07:00:00 17.5 0 Calma 6 Noroeste 0 -- -- 69
2019-09-24 06:00:00 17.8 3 Noroeste 6 Noroeste 0 -- -- 67
2019-09-24 05:00:00 18.3 4 Noroeste 6 Noroeste 0 -- -- 64
2019-09-24 04:00:00 18.6 4 Noroeste 6 Noroeste 0 -- -- 62
2019-09-24 03:00:00 18.9 3 Norte 5 Noroeste 0 -- -- 61
2019-09-24 02:00:00 19.9 4 Nordeste 8 Norte 0 -- -- 55
2019-09-24 01:00:00 20.2 3 Norte 9 Nordeste 0 -- -- 55
2019-09-24 00:00:00 20.8 3 Norte 13 Noroeste 0 -- -- 53
2019-09-23 23:00:00 21.1 9 Noroeste 12 Noroeste 0 -- -- 51
2019-09-23 22:00:00 21.5 4 Noroeste 8 Norte 0 -- -- 47
2019-09-23 21:00:00 22.7 3 Norte 6 Norte 0 -- -- 49
2019-09-23 20:00:00 24.7 2 Sur 9 Sudeste 0 -- -- 45
2019-09-23 19:00:00 26.5 5 Sur 13 Sur 0 -- -- 41
2019-09-23 18:00:00 26.3 7 Sudeste 18 Sur 0 -- -- 43
2019-09-23 17:00:00 26.9 9 Sudeste 17 Sur 0 -- -- 40
2019-09-23 16:00:00 27.4 11 Sudeste 21 Sur 0 -- -- 38
2019-09-23 15:00:00 27.8 11 Sur 18 Sudeste 0 -- -- 36
2019-09-23 14:00:00 27.1 12 Sudeste 21 Sur 0 -- -- 37
2019-09-23 13:00:00 26.8 10 Sur 18 Sudeste 0 -- -- 36
2019-09-23 12:00:00 26 12 Sur 20 Sur 0 -- -- 38
2019-09-23 11:00:00 25.1 4 Sur 8 Sur 0 -- -- 44
2019-09-23 10:00:00 21.4 5 Noroeste 12 Noroeste 0 -- -- 53
2019-09-23 09:00:00 19 10 Noroeste 19 Noroeste 0 -- -- 60
2019-09-23 08:00:00 17.7 17 Noroeste 24 Noroeste 0 -- -- 64
2019-09-23 07:00:00 18.2 16 Noroeste 23 Noroeste 0 -- -- 63
2019-09-23 06:00:00 18.1 18 Noroeste 25 Noroeste 0 -- -- 64
2019-09-23 05:00:00 18.7 18 Noroeste 28 Noroeste 0 -- -- 65
2019-09-23 04:00:00 18.9 18 Noroeste 30 Noroeste 0 -- -- 66
2019-09-23 03:00:00 19 21 Noroeste 32 Noroeste 0 -- -- 71
2019-09-23 02:00:00 19.2 21 Noroeste 33 Noroeste 0 -- -- 74
2019-09-23 01:00:00 19.3 24 Noroeste 35 Oeste 0 -- -- 77
2019-09-23 00:00:00 20.1 21 Noroeste 35 Noroeste 0 -- -- 75
2019-09-22 23:00:00 20.7 17 Noroeste 33 Noroeste 0 -- -- 72
2019-09-22 22:00:00 21.6 24 Noroeste 36 Norte 0 -- -- 68
2019-09-22 21:00:00 22.7 17 Noroeste 27 Oeste 0 -- -- 62
2019-09-22 20:00:00 24.1 14 Noroeste 32 Noroeste 0 -- -- 52
2019-09-22 19:00:00 26.1 15 Noroeste 40 Norte 0 -- -- 43
2019-09-22 18:00:00 27.3 22 Noroeste 35 Oeste 0 -- -- 37
2019-09-22 17:00:00 26.5 25 Oeste 38 Oeste 0 -- -- 42
2019-09-22 16:00:00 26.8 22 Noroeste 37 Noroeste 0 -- -- 47
2019-09-22 15:00:00 26.7 19 Noroeste 37 Oeste 0 -- -- 55
2019-09-22 14:00:00 25.5 17 Noroeste 34 Noroeste 0 -- -- 58
2019-09-22 13:00:00 23.6 18 Noroeste 32 Noroeste 0 -- -- 71
2019-09-22 12:00:00 22.3 13 Noroeste 27 Oeste 0 -- -- 83
2019-09-22 11:00:00 22.2 9 Noroeste 18 Noroeste 0 -- -- 77
2019-09-22 10:00:00 21.4 12 Noroeste 20 Noroeste 0 -- -- 81
2019-09-22 09:00:00 20.1 10 Noroeste 15 Oeste 0 -- -- 84
2019-09-22 08:00:00 19.3 8 Noroeste 12 Noroeste 0 -- -- 84
2019-09-22 07:00:00 19.3 7 Noroeste 17 Noroeste 0 -- -- 83
2019-09-22 06:00:00 19.1 12 Noroeste 23 Oeste 0 -- -- 84
2019-09-22 05:00:00 19.9 14 Noroeste 29 Norte 0 -- -- 81
2019-09-22 04:00:00 20.2 16 Noroeste 26 Noroeste 0 -- -- 80
2019-09-22 03:00:00 20.5 15 Noroeste 26 Noroeste 0 -- -- 72
2019-09-22 02:00:00 21.1 14 Noroeste 26 Noroeste 0 -- -- 67
2019-09-22 01:00:00 21.4 17 Noroeste 26 Noroeste 0 -- -- 68
2019-09-22 00:00:00 21.8 15 Noroeste 27 Noroeste 0 -- -- 68
2019-09-21 23:00:00 22.2 16 Noroeste 23 Noroeste 0 -- -- 68
2019-09-21 22:00:00 22.4 15 Noroeste 24 Noroeste 0 -- -- 70
2019-09-21 21:00:00 23 16 Noroeste 24 Oeste 0 -- -- 69
2019-09-21 20:00:00 24.1 2 Nordeste 8 Este 0 -- -- 65
2019-09-21 19:00:00 24.3 6 Este 10 Este 0 -- -- 66
2019-09-21 18:00:00 25.4 6 Sur 13 Sur 0 -- -- 54
2019-09-21 17:00:00 26.1 7 Sur 18 Sur 0 -- -- 53
2019-09-21 16:00:00 26.5 10 Sur 19 Sur 0 -- -- 50
2019-09-21 15:00:00 25.6 12 Sur 17 Sudeste 0 -- -- 55
2019-09-21 14:00:00 25.4 10 Sudeste 18 Sudeste 0 -- -- 63
2019-09-21 13:00:00 24.4 7 Sudeste 14 Sudeste 0 -- -- 69
2019-09-21 12:00:00 22.9 3 Sur 10 Sudeste 0 -- -- 82
2019-09-21 11:00:00 22 2 Nordeste 6 Norte 0 -- -- 90
2019-09-21 10:00:00 21.1 0 Calma 7 Noroeste 0 -- -- 93
2019-09-21 09:00:00 20.3 3 Noroeste 12 Noroeste 0 -- -- 94
2019-09-21 08:00:00 20.1 8 Noroeste 14 Noroeste 0 -- -- 95
2019-09-21 07:00:00 20.7 7 Noroeste 11 Noroeste 0 -- -- 95
2019-09-21 06:00:00 20.8 6 Noroeste 10 Noroeste 0 -- -- 95
2019-09-21 05:00:00 21 6 Noroeste 10 Noroeste 0 -- -- 95
2019-09-21 04:00:00 21.2 0 Calma 3 Oeste 0 -- -- 94
2019-09-21 03:00:00 21.4 0 Calma 3 Sudoeste 0 -- -- 94
2019-09-21 02:00:00 21.7 2 Sudoeste 9 Sudoeste 0.4 -- -- 94
2019-09-21 01:00:00 21.9 2 Este 14 Este 0 -- -- 92
2019-09-21 00:00:00 22 4 Sudeste 13 Sudeste 0 -- -- 93
2019-09-20 23:00:00 22 5 Sudeste 11 Este 0 -- -- 93
2019-09-20 22:00:00 21.9 5 Sudeste 12 Sudeste 0 -- -- 93
2019-09-20 21:00:00 22.2 6 Este 13 Este 0 -- -- 91
2019-09-20 20:00:00 22.5 9 Sudeste 16 Este 0 -- -- 91
2019-09-20 19:00:00 22.5 9 Este 18 Sudeste 0 -- -- 91
2019-09-20 18:00:00 22.7 12 Sudeste 23 Sudeste 0 -- -- 90
2019-09-20 17:00:00 22.9 12 Sudeste 24 Este 0 -- -- 89
2019-09-20 16:00:00 22.8 11 Sudeste 26 Sudeste 0 -- -- 91
2019-09-20 15:00:00 22.7 21 Sudeste 29 Sudeste 0 -- -- 91
2019-09-20 14:00:00 23 16 Sudeste 26 Este 0 -- -- 88
2019-09-20 13:00:00 23.5 13 Sudeste 23 Este 0 -- -- 82
2019-09-20 12:00:00 23.5 13 Sudeste 23 Este 0 -- -- 81
2019-09-20 11:00:00 23.6 16 Sudeste 26 Este 0 -- -- 79
2019-09-20 10:00:00 22.2 14 Sudeste 22 Este 0 -- -- 85
2019-09-20 09:00:00 21.7 11 Sudeste 21 Este 0 -- -- 87
2019-09-20 08:00:00 21.2 6 Sudeste 15 Sudeste 0 -- -- 90
2019-09-20 07:00:00 21.3 6 Sudeste 19 Sudeste 0 -- -- 89
2019-09-20 06:00:00 20.8 13 Sudeste 26 Sudeste 0 -- -- 89
2019-09-20 05:00:00 21 15 Sudeste 27 Sudeste 0 -- -- 90
2019-09-20 04:00:00 21 13 Sudeste 23 Sudeste 0 -- -- 86
2019-09-20 03:00:00 20.9 12 Sudeste 20 Sudeste 0 -- -- 88
2019-09-20 02:00:00 21.1 3 Este 10 Este 0 -- -- 92
2019-09-20 01:00:00 21.2 0 Calma 8 Este 0 -- -- 90
2019-09-20 00:00:00 21.2 2 Nordeste 5 Este 0 -- -- 88
2019-09-19 23:00:00 21 3 Nordeste 5 Nordeste 0 -- -- 83
2019-09-19 22:00:00 21.8 0 Calma 4 Sudeste 0 -- -- 81
2019-09-19 21:00:00 22.2 3 Nordeste 6 Sudeste 0 -- -- 80
2019-09-19 20:00:00 23 4 Este 9 Este 0 -- -- 76
2019-09-19 19:00:00 24.2 7 Este 14 Sudeste 0 -- -- 69
2019-09-19 18:00:00 25.5 7 Este 18 Sudeste 0 -- -- 63
2019-09-19 17:00:00 26 8 Sudeste 17 Sur 0 -- -- 63
2019-09-19 16:00:00 25.8 11 Sudeste 21 Este 0 -- -- 62
2019-09-19 15:00:00 26.7 9 Sudeste 17 Sudeste 0 -- -- 57
2019-09-19 14:00:00 25.9 10 Sudeste 17 Sudeste 0 -- -- 61
2019-09-19 13:00:00 26 10 Sudeste 16 Sudeste 0 -- -- 59
2019-09-19 12:00:00 25.4 9 Sudeste 17 Sur 0 -- -- 63
2019-09-19 11:00:00 25.5 8 Sur 17 Sudeste 0 -- -- 58
2019-09-19 10:00:00 23 4 Norte 12 Noroeste 0 -- -- 68
2019-09-19 09:00:00 19.7 8 Noroeste 15 Noroeste 0 -- -- 77
2019-09-19 08:00:00 18.7 11 Noroeste 14 Noroeste 0 -- -- 80
2019-09-19 07:00:00 19.2 6 Noroeste 10 Noroeste 0 -- -- 84
2019-09-19 06:00:00 19.6 0 Calma 13 Noroeste 0 -- -- 78
2019-09-19 05:00:00 19.5 11 Noroeste 15 Noroeste 0 -- -- 77
2019-09-19 04:00:00 20.3 9 Norte 24 Noroeste 0 -- -- 74
2019-09-19 03:00:00 19.9 19 Noroeste 32 Noroeste 0 -- -- 75
2019-09-19 02:00:00 20.7 18 Noroeste 28 Noroeste 0 -- -- 72
2019-09-19 01:00:00 21.6 18 Norte 29 Noroeste 0 -- -- 68
2019-09-19 00:00:00 22.2 10 Noroeste 28 Noroeste 0 -- -- 65
2019-09-18 23:00:00 22.6 19 Noroeste 30 Noroeste 0 -- -- 64
2019-09-18 22:00:00 23.8 19 Noroeste 30 Noroeste 0 -- -- 59
2019-09-18 21:00:00 24.9 10 Noroeste 17 Oeste 0 -- -- 57
2019-09-18 20:00:00 26.5 0 Calma 10 Este 0 -- -- 56
2019-09-18 19:00:00 28.1 6 Este 10 Este 0 -- -- 52
2019-09-18 18:00:00 27.5 7 Este 15 Este 0 -- -- 53
2019-09-18 17:00:00 27.7 9 Sudeste 18 Este 0 -- -- 53
2019-09-18 16:00:00 28.1 9 Sudeste 19 Sudeste 0 -- -- 53
2019-09-18 15:00:00 28.2 11 Sur 23 Sur 0 -- -- 56
2019-09-18 14:00:00 27.6 13 Sudeste 21 Sudoeste 0 -- -- 61
2019-09-18 13:00:00 26.6 7 Oeste 15 Oeste 0 -- -- 62
2019-09-18 12:00:00 24.9 9 Noroeste 20 Norte 0 -- -- 69
2019-09-18 11:00:00 23.2 11 Noroeste 19 Noroeste 0 -- -- 76
2019-09-18 10:00:00 21.8 11 Noroeste 15 Noroeste 0 -- -- 84
2019-09-18 09:00:00 20 6 Noroeste 12 Noroeste 0 -- -- 94
2019-09-18 08:00:00 19.5 5 Noroeste 6 Noroeste 0 -- -- 93
2019-09-18 07:00:00 20.2 4 Noroeste 6 Noroeste 0 -- -- 92
2019-09-18 06:00:00 20.4 4 Nordeste 6 Nordeste 0 -- -- 92
2019-09-18 05:00:00 20.4 0 Calma 9 Noroeste 0 -- -- 93
2019-09-18 04:00:00 20.2 6 Noroeste 9 Noroeste 0 -- -- 93
2019-09-18 03:00:00 20.1 0 Calma 5 Noroeste 0 -- -- 94
2019-09-18 02:00:00 20.1 3 Noroeste 5 Noroeste 0 -- -- 92
2019-09-18 01:00:00 20.4 0 Calma 5 Noroeste 0 -- -- 91
2019-09-18 00:00:00 20.7 3 Noroeste 4 Norte 0 -- -- 89
2019-09-17 23:00:00 21.4 0 Calma 4 Noroeste 0 -- -- 87
2019-09-17 22:00:00 22.4 0 Calma 8 Sudeste 0 -- -- 85
2019-09-17 21:00:00 23 4 Sudeste 8 Sudeste 0 -- -- 81